Time;durP1;ratioP1;P1;durP2;ratioP2;P2;SDS_P1;SDS_P2;PMS_P1;PMS_P2;Temp;Humidity;BMP_temperature;BMP_pressure;BME280_temperature;BME280_humidity;BME280_pressure;Samples;Min_cycle;Max_cycle;Signal;HPM_P1;HPM_P2
2023/09/02 00:01:18;;;;;;;44.50;20.60;;;;;;;;;;5052096;28;20032;-71
2023/09/02 00:03:43;;;;;;;38.05;18.75;;;;;;;;;;5057281;28;20090;-70
2023/09/02 00:06:09;;;;;;;41.33;20.58;;;;;;;;;;5040001;28;20367;-71
2023/09/02 00:08:34;;;;;;;38.88;21.65;;;;;;;;;;5059445;28;20029;-72
2023/09/02 00:10:59;;;;;;;35.72;20.45;;;;;;;;;;5041666;28;20040;-72
2023/09/02 00:13:25;;;;;;;41.35;21.75;;;;;;;;;;5056927;28;20433;-73
2023/09/02 00:15:50;;;;;;;36.65;20.90;;;;;;;;;;5043518;28;20036;-73
2023/09/02 00:18:15;;;;;;;31.10;18.30;;;;;;;;;;5062369;28;20020;-73
2023/09/02 00:20:40;;;;;;;31.27;20.38;;;;;;;;;;5055665;28;20029;-73
2023/09/02 00:23:06;;;;;;;32.45;22.63;;;;;;;;;;5041036;28;20493;-73
2023/09/02 00:25:33;;;;;;;36.95;23.75;;;;;;;;;;5031093;28;20034;-72
2023/09/02 00:27:59;;;;;;;35.42;22.58;;;;;;;;;;5022201;28;20032;-73
2023/09/02 00:30:26;;;;;;;46.15;22.92;;;;;;;;;;5036888;28;20037;-72
2023/09/02 00:32:52;;;;;;;36.47;20.33;;;;;;;;;;5012823;28;20536;-72
2023/09/02 00:35:17;;;;;;;31.38;17.02;;;;;;;;;;5034251;28;20033;-73
2023/09/02 00:37:43;;;;;;;27.67;15.00;;;;;;;;;;5037907;28;20072;-73
2023/09/02 00:40:11;;;;;;;25.88;14.75;;;;;;;;;;5032163;28;20253;-73
2023/09/02 00:42:37;;;;;;;21.85;13.73;;;;;;;;;;5015107;28;20035;-74
2023/09/02 00:45:04;;;;;;;26.25;14.63;;;;;;;;;;5022808;28;20025;-73
2023/09/02 00:47:30;;;;;;;26.63;14.07;;;;;;;;;;5040834;28;20037;-73
2023/09/02 00:49:58;;;;;;;33.28;15.55;;;;;;;;;;5040684;28;20090;-73
2023/09/02 00:52:23;;;;;;;36.47;16.95;;;;;;;;;;5020014;28;20413;-72
2023/09/02 00:54:49;;;;;;;35.95;17.27;;;;;;;;;;5039619;28;20044;-73
2023/09/02 00:57:14;;;;;;;36.13;17.52;;;;;;;;;;5041494;28;20112;-74
2023/09/02 00:59:42;;;;;;;29.98;16.50;;;;;;;;;;5041963;28;20033;-73
2023/09/02 01:02:08;;;;;;;40.33;18.02;;;;;;;;;;5023749;28;20460;-73
2023/09/02 01:04:36;;;;;;;38.28;17.67;;;;;;;;;;5040351;28;20506;-73
2023/09/02 01:07:02;;;;;;;39.17;18.63;;;;;;;;;;5038545;28;20040;-73
2023/09/02 01:09:28;;;;;;;43.83;20.73;;;;;;;;;;5041240;28;20033;-73
2023/09/02 01:11:54;;;;;;;43.45;19.15;;;;;;;;;;5040536;28;20029;-73
2023/09/02 01:14:19;;;;;;;44.10;19.80;;;;;;;;;;5023746;28;20044;-73
2023/09/02 01:16:47;;;;;;;39.40;18.67;;;;;;;;;;5040739;28;20073;-74
2023/09/02 01:19:18;;;;;;;37.63;17.50;;;;;;;;;;5037237;28;20058;-73
2023/09/02 01:21:43;;;;;;;29.25;14.68;;;;;;;;;;5038980;28;20493;-73
2023/09/02 01:24:23;;;;;;;28.38;12.95;;;;;;;;;;5046104;28;20043;-73
2023/09/02 01:27:07;;;;;;;26.60;12.95;;;;;;;;;;5059670;28;20044;-71
2023/09/02 01:29:40;;;;;;;27.98;12.55;;;;;;;;;;5060092;28;20040;-73
2023/09/02 01:32:06;;;;;;;26.67;12.85;;;;;;;;;;5060458;28;20397;-72
2023/09/02 01:34:34;;;;;;;26.42;13.43;;;;;;;;;;5051497;28;20029;-72
2023/09/02 01:37:00;;;;;;;31.27;14.02;;;;;;;;;;5052745;28;20602;-72
2023/09/02 01:39:26;;;;;;;28.73;14.15;;;;;;;;;;5059650;28;20036;-73
2023/09/02 01:41:52;;;;;;;33.50;14.25;;;;;;;;;;5043125;28;20036;-73
2023/09/02 01:44:18;;;;;;;35.42;15.38;;;;;;;;;;5054755;28;20409;-73
2023/09/02 01:46:46;;;;;;;39.03;16.08;;;;;;;;;;5041358;28;20127;-73
2023/09/02 01:49:12;;;;;;;41.58;17.27;;;;;;;;;;5061306;28;23839;-72
2023/09/02 01:51:38;;;;;;;42.55;18.60;;;;;;;;;;5025062;28;20036;-72
2023/09/02 01:54:03;;;;;;;46.28;20.15;;;;;;;;;;5058092;28;20032;-72
2023/09/02 01:56:31;;;;;;;56.72;21.38;;;;;;;;;;5058144;28;20132;-72
2023/09/02 01:58:56;;;;;;;47.45;20.73;;;;;;;;;;5042333;28;20043;-72
2023/09/02 02:01:22;;;;;;;49.22;20.95;;;;;;;;;;5060549;28;20040;-72
2023/09/02 02:04:02;;;;;;;49.45;20.77;;;;;;;;;;5059346;28;20036;-72
2023/09/02 02:06:29;;;;;;;47.88;20.30;;;;;;;;;;5046970;28;20055;-72
2023/09/02 02:08:54;;;;;;;54.40;20.88;;;;;;;;;;5060321;28;20052;-72
2023/09/02 02:11:20;;;;;;;49.05;21.67;;;;;;;;;;5059891;28;20060;-73
2023/09/02 02:13:49;;;;;;;57.33;22.83;;;;;;;;;;5061224;28;20070;-72
2023/09/02 02:16:14;;;;;;;56.20;24.48;;;;;;;;;;5059649;28;20052;-73
2023/09/02 02:18:39;;;;;;;53.88;22.25;;;;;;;;;;5025208;28;20177;-74
2023/09/02 02:21:05;;;;;;;56.22;21.80;;;;;;;;;;5057018;28;20086;-72
2023/09/02 02:23:30;;;;;;;47.00;20.00;;;;;;;;;;5024186;28;20220;-72
2023/09/02 02:26:03;;;;;;;42.60;19.30;;;;;;;;;;5042635;28;20052;-70
2023/09/02 02:28:28;;;;;;;45.50;19.88;;;;;;;;;;5059062;28;20025;-71
2023/09/02 02:30:57;;;;;;;46.13;20.60;;;;;;;;;;5060588;28;20027;-71
2023/09/02 02:33:22;;;;;;;53.97;23.75;;;;;;;;;;5026078;28;20230;-72
2023/09/02 02:35:50;;;;;;;49.97;23.40;;;;;;;;;;5025270;28;20067;-72
2023/09/02 02:38:17;;;;;;;53.78;22.75;;;;;;;;;;5058961;28;20043;-72
2023/09/02 02:40:43;;;;;;;56.08;23.75;;;;;;;;;;5059940;28;20040;-74
2023/09/02 02:43:08;;;;;;;49.42;21.00;;;;;;;;;;5060963;28;20035;-72
2023/09/02 02:45:33;;;;;;;58.95;22.80;;;;;;;;;;5042460;28;20048;-72
2023/09/02 02:47:59;;;;;;;62.95;23.45;;;;;;;;;;5055945;28;20068;-72
2023/09/02 02:50:24;;;;;;;61.22;22.95;;;;;;;;;;5032346;28;20111;-72
2023/09/02 02:52:50;;;;;;;53.03;21.45;;;;;;;;;;5037793;28;20086;-73
2023/09/02 02:55:15;;;;;;;74.97;21.35;;;;;;;;;;5060269;28;20082;-73
2023/09/02 02:57:40;;;;;;;59.15;22.67;;;;;;;;;;5059897;28;20140;-73
2023/09/02 03:00:08;;;;;;;55.58;22.55;;;;;;;;;;5058853;28;20572;-74
2023/09/02 03:02:34;;;;;;;60.08;21.80;;;;;;;;;;5041658;28;20107;-72
2023/09/02 03:04:59;;;;;;;63.50;24.05;;;;;;;;;;5059835;28;20128;-73
2023/09/02 03:07:27;;;;;;;59.67;21.67;;;;;;;;;;5060176;28;20035;-73
2023/09/02 03:09:53;;;;;;;40.58;16.77;;;;;;;;;;5042076;28;20038;-73
2023/09/02 03:12:18;;;;;;;43.95;16.30;;;;;;;;;;5038154;28;20489;-73
2023/09/02 03:14:46;;;;;;;32.40;15.13;;;;;;;;;;5056560;28;20039;-73
2023/09/02 03:17:14;;;;;;;32.47;15.02;;;;;;;;;;5040852;28;20047;-73
2023/09/02 03:19:43;;;;;;;37.88;15.40;;;;;;;;;;5051615;28;20092;-73
2023/09/02 03:22:08;;;;;;;32.70;15.00;;;;;;;;;;5058672;28;20528;-74
2023/09/02 03:24:36;;;;;;;32.22;14.43;;;;;;;;;;5040262;28;20036;-75
2023/09/02 03:27:03;;;;;;;30.48;15.18;;;;;;;;;;5060367;28;20558;-72
2023/09/02 03:29:28;;;;;;;30.88;14.70;;;;;;;;;;5057705;28;20044;-72
2023/09/02 03:31:56;;;;;;;30.80;14.82;;;;;;;;;;5059922;28;20029;-72
2023/09/02 03:34:24;;;;;;;35.78;15.52;;;;;;;;;;5039649;28;20036;-73
2023/09/02 03:36:49;;;;;;;32.70;15.15;;;;;;;;;;5060504;28;20054;-73
2023/09/02 03:39:14;;;;;;;39.92;16.55;;;;;;;;;;5059575;28;20032;-73
2023/09/02 03:41:40;;;;;;;30.13;14.30;;;;;;;;;;5042315;28;20098;-72
2023/09/02 03:44:08;;;;;;;35.53;15.63;;;;;;;;;;5056627;28;20036;-72
2023/09/02 03:46:36;;;;;;;34.60;15.30;;;;;;;;;;5024218;28;20044;-73
2023/09/02 03:49:04;;;;;;;36.47;14.98;;;;;;;;;;5023275;28;20435;-73
2023/09/02 03:51:29;;;;;;;35.55;14.93;;;;;;;;;;5046179;28;20119;-72
2023/09/02 03:53:55;;;;;;;35.33;15.00;;;;;;;;;;5037734;28;20047;-73
2023/09/02 03:56:20;;;;;;;37.47;15.93;;;;;;;;;;5058764;28;20068;-72
2023/09/02 03:58:47;;;;;;;36.78;15.10;;;;;;;;;;5059921;28;20047;-73
2023/09/02 04:01:13;;;;;;;39.42;16.02;;;;;;;;;;5057623;28;20739;-74
2023/09/02 04:03:38;;;;;;;36.70;15.90;;;;;;;;;;5056752;28;20035;-73
2023/09/02 04:06:05;;;;;;;36.13;15.95;;;;;;;;;;5057993;28;20437;-72
2023/09/02 04:08:34;;;;;;;59.30;17.00;;;;;;;;;;5060140;28;20028;-72
2023/09/02 04:10:59;;;;;;;38.85;16.00;;;;;;;;;;5040359;28;20027;-72
2023/09/02 04:13:25;;;;;;;36.05;16.02;;;;;;;;;;5058969;28;20545;-72
2023/09/02 04:15:55;;;;;;;41.00;17.10;;;;;;;;;;5039552;28;20578;-72
2023/09/02 04:18:20;;;;;;;48.30;17.38;;;;;;;;;;5058716;28;20788;-72
2023/09/02 04:20:48;;;;;;;38.35;16.83;;;;;;;;;;5058216;28;20056;-72
2023/09/02 04:23:16;;;;;;;37.55;17.63;;;;;;;;;;5057222;28;20033;-72
2023/09/02 04:25:48;;;;;;;39.85;17.50;;;;;;;;;;5057071;28;20048;-71
2023/09/02 04:28:13;;;;;;;45.88;17.90;;;;;;;;;;5057885;28;20032;-72
2023/09/02 04:30:41;;;;;;;63.95;19.20;;;;;;;;;;5058299;28;20492;-73
2023/09/02 04:33:06;;;;;;;46.17;18.33;;;;;;;;;;5055869;28;20129;-73
2023/09/02 04:35:35;;;;;;;48.00;19.35;;;;;;;;;;5058105;28;20511;-74
2023/09/02 04:38:01;;;;;;;51.08;19.85;;;;;;;;;;5051366;28;20071;-72
2023/09/02 04:40:26;;;;;;;44.35;19.75;;;;;;;;;;5059155;28;20031;-72
2023/09/02 04:42:55;;;;;;;54.75;20.85;;;;;;;;;;5040549;28;20129;-72
2023/09/02 04:45:20;;;;;;;49.45;21.13;;;;;;;;;;5056819;28;20047;-72
2023/09/02 04:47:48;;;;;;;55.05;21.95;;;;;;;;;;5057652;28;20032;-75
2023/09/02 04:50:16;;;;;;;54.97;22.05;;;;;;;;;;5057956;28;20086;-74
2023/09/02 04:52:44;;;;;;;64.80;23.23;;;;;;;;;;5058209;28;20536;-73
2023/09/02 04:55:09;;;;;;;59.65;22.42;;;;;;;;;;5037557;28;20070;-74
2023/09/02 04:57:35;;;;;;;50.83;22.23;;;;;;;;;;5031715;28;20496;-72
2023/09/02 05:00:03;;;;;;;71.00;24.55;;;;;;;;;;5060532;28;20036;-73
2023/09/02 05:02:29;;;;;;;66.60;23.55;;;;;;;;;;5026128;28;20430;-69
2023/09/02 05:04:54;;;;;;;59.03;22.27;;;;;;;;;;5043369;28;20024;-70
2023/09/02 05:07:19;;;;;;;59.45;23.10;;;;;;;;;;5055981;28;20040;-70
2023/09/02 05:09:49;;;;;;;56.15;23.77;;;;;;;;;;5042593;28;20036;-70
2023/09/02 05:12:14;;;;;;;61.78;24.40;;;;;;;;;;5043193;28;20563;-70
2023/09/02 05:14:42;;;;;;;57.20;24.08;;;;;;;;;;5038741;28;20047;-70
2023/09/02 05:17:07;;;;;;;57.53;23.83;;;;;;;;;;5058206;28;20040;-71
2023/09/02 05:19:32;;;;;;;71.40;25.15;;;;;;;;;;5034855;28;20203;-71
2023/09/02 05:21:58;;;;;;;67.57;25.63;;;;;;;;;;5027990;28;20032;-71
2023/09/02 05:24:23;;;;;;;72.00;26.50;;;;;;;;;;5052782;28;20029;-71
2023/09/02 05:26:49;;;;;;;81.75;27.90;;;;;;;;;;5056088;28;20033;-71
2023/09/02 05:29:14;;;;;;;78.40;28.65;;;;;;;;;;5053764;28;20025;-70
2023/09/02 05:31:42;;;;;;;101.40;31.38;;;;;;;;;;5055511;28;20036;-71
2023/09/02 05:34:07;;;;;;;67.85;27.08;;;;;;;;;;5045122;28;20047;-71
2023/09/02 05:36:35;;;;;;;64.57;26.77;;;;;;;;;;5055969;28;20095;-71
2023/09/02 05:39:03;;;;;;;61.95;24.25;;;;;;;;;;5058795;28;20033;-71
2023/09/02 05:41:30;;;;;;;57.72;24.63;;;;;;;;;;5042471;28;20106;-70
2023/09/02 05:43:56;;;;;;;59.20;24.70;;;;;;;;;;5055800;28;20029;-70
